createdAt,value
2023-04-17T00:00:42.721Z,28.93
2023-04-17T00:02:44.311Z,28.94
2023-04-17T00:04:15.851Z,28.27
2023-04-17T00:05:57.319Z,28.59
2023-04-17T00:07:28.831Z,28.55
2023-04-17T00:09:00.159Z,29.72
2023-04-17T00:10:36.405Z,30.77
2023-04-17T00:12:07.613Z,29.24
2023-04-17T00:13:47.604Z,31.77
2023-04-17T00:15:19.352Z,32.55
2023-04-17T00:16:51.016Z,30.84
2023-04-17T00:18:22.461Z,30.79
2023-04-17T00:19:53.786Z,31.21
2023-04-17T00:21:25.212Z,31.18
2023-04-17T00:22:56.541Z,32.37
2023-04-17T00:24:29.062Z,32.32
2023-04-17T00:26:00.399Z,33.08
2023-04-17T00:27:31.711Z,32.52
2023-04-17T00:29:03.018Z,33.51
2023-04-17T00:30:34.343Z,32.52
2023-04-17T00:32:05.890Z,30.85
2023-04-17T00:33:37.328Z,32.35
2023-04-17T00:35:08.755Z,32.85
2023-04-17T00:36:40.371Z,31.96
2023-04-17T00:38:11.719Z,31.33
2023-04-17T00:39:43.108Z,29.39
2023-04-17T00:41:14.512Z,28.58
2023-04-17T00:42:45.943Z,31.00
2023-04-17T00:44:17.263Z,32.41
2023-04-17T00:45:48.590Z,30.83
2023-04-17T00:47:20.087Z,32.01
2023-04-17T00:48:51.538Z,27.66
2023-04-17T00:50:22.987Z,28.77
2023-04-17T00:51:54.321Z,29.27
2023-04-17T00:53:25.765Z,31.60
2023-04-17T00:54:57.058Z,32.95
2023-04-17T00:56:28.413Z,28.50
2023-04-17T00:58:00.293Z,31.77
2023-04-17T00:59:31.809Z,32.38
2023-04-17T01:01:03.085Z,31.69
2023-04-17T01:02:34.621Z,31.04
2023-04-17T01:04:06.032Z,31.96
2023-04-17T01:05:37.456Z,31.10
2023-04-17T01:07:08.868Z,31.22
2023-04-17T01:08:40.184Z,31.29
2023-04-17T01:10:11.480Z,30.79
2023-04-17T01:11:42.978Z,31.26
2023-04-17T01:13:14.519Z,29.76
2023-04-17T01:14:45.868Z,28.44
2023-04-17T01:16:17.238Z,29.00
2023-04-17T01:17:48.606Z,26.88
2023-04-17T01:19:20.110Z,29.42
2023-04-17T01:20:51.755Z,30.31
2023-04-17T01:22:23.052Z,28.75
2023-04-17T01:23:54.305Z,29.07
2023-04-17T01:25:25.760Z,29.73
2023-04-17T01:26:57.235Z,30.20
2023-04-17T01:28:28.551Z,29.31
2023-04-17T01:30:00.003Z,29.59
2023-04-17T01:31:31.515Z,29.05
2023-04-17T01:33:02.995Z,29.69
2023-04-17T01:34:36.099Z,29.29
2023-04-17T01:36:08.756Z,29.33
2023-04-17T01:37:40.127Z,29.12
2023-04-17T01:39:12.129Z,28.67
2023-04-17T01:40:43.717Z,27.42
2023-04-17T01:42:15.480Z,28.33
2023-04-17T01:43:46.907Z,27.18
2023-04-17T01:45:18.546Z,29.00
2023-04-17T01:46:49.874Z,29.77
2023-04-17T01:48:21.112Z,28.96
2023-04-17T01:49:52.467Z,28.12
2023-04-17T01:51:23.917Z,27.91
2023-04-17T01:52:55.209Z,28.33
2023-04-17T01:54:26.432Z,28.45
2023-04-17T01:55:57.807Z,28.67
2023-04-17T01:57:29.089Z,28.64
2023-04-17T01:59:00.541Z,28.33
2023-04-17T02:00:31.864Z,28.55
2023-04-17T02:02:03.261Z,28.40
2023-04-17T02:03:34.813Z,29.00
2023-04-17T02:05:06.239Z,29.62
2023-04-17T02:06:37.495Z,27.57
2023-04-17T02:08:08.829Z,28.89
2023-04-17T02:09:41.087Z,29.02
2023-04-17T02:11:12.334Z,29.58
2023-04-17T02:12:44.871Z,29.33
2023-04-17T02:14:16.232Z,29.45
2023-04-17T02:15:47.678Z,29.93
2023-04-17T02:17:19.064Z,29.29
2023-04-17T02:18:50.415Z,27.63
2023-04-17T02:20:22.043Z,28.92
2023-04-17T02:21:53.492Z,28.25
2023-04-17T02:23:25.186Z,29.84
2023-04-17T02:24:56.580Z,31.49
2023-04-17T02:26:28.154Z,30.75
2023-04-17T02:27:59.657Z,29.45
2023-04-17T02:29:30.956Z,27.20
2023-04-17T02:31:02.366Z,28.44
2023-04-17T02:32:33.843Z,30.23
2023-04-17T02:34:05.264Z,27.68
2023-04-17T02:35:36.628Z,27.76
2023-04-17T02:37:08.086Z,28.23
2023-04-17T02:38:39.662Z,29.08
2023-04-17T02:40:11.017Z,28.88
2023-04-17T02:41:42.374Z,28.56
2023-04-17T02:43:14.053Z,28.85
2023-04-17T02:44:45.514Z,27.55
2023-04-17T02:46:16.884Z,29.43
2023-04-17T02:47:48.210Z,29.36
2023-04-17T02:49:19.754Z,29.16
2023-04-17T02:50:51.025Z,27.33
2023-04-17T02:52:22.847Z,29.27
2023-04-17T02:53:54.316Z,28.82
2023-04-17T02:55:25.587Z,29.88
2023-04-17T02:56:56.926Z,29.95
2023-04-17T02:58:28.207Z,29.78
2023-04-17T02:59:59.424Z,28.45
2023-04-17T03:01:30.776Z,27.09
2023-04-17T03:03:02.416Z,28.67
2023-04-17T03:04:33.806Z,30.23
2023-04-17T03:06:05.102Z,29.70
2023-04-17T03:07:36.362Z,29.01
2023-04-17T03:09:07.676Z,28.79
2023-04-17T03:10:39.019Z,28.92
2023-04-17T03:12:10.435Z,29.98
2023-04-17T03:13:42.183Z,27.98
2023-04-17T03:15:13.667Z,28.31
2023-04-17T03:16:45.033Z,28.24
2023-04-17T03:18:16.396Z,28.73
2023-04-17T03:19:47.740Z,28.76
2023-04-17T03:21:24.113Z,27.82
2023-04-17T03:23:00.476Z,28.62
2023-04-17T03:24:31.847Z,27.92
2023-04-17T03:26:03.179Z,28.30
2023-04-17T03:27:34.479Z,30.13
2023-04-17T03:29:05.692Z,28.99
2023-04-17T03:30:37.079Z,29.13
2023-04-17T03:32:08.572Z,28.88
2023-04-17T03:33:40.150Z,29.83
2023-04-17T03:35:11.434Z,29.14
2023-04-17T03:36:42.779Z,30.38
2023-04-17T03:38:14.276Z,28.86
2023-04-17T03:39:45.789Z,29.20
2023-04-17T03:41:17.790Z,29.44
2023-04-17T03:42:49.179Z,28.94
2023-04-17T03:44:20.587Z,30.57
2023-04-17T03:45:51.968Z,29.67
2023-04-17T03:47:23.364Z,30.41
2023-04-17T03:48:55.215Z,29.75
2023-04-17T03:50:26.493Z,29.94
2023-04-17T03:51:57.767Z,30.66
2023-04-17T03:53:29.172Z,31.88
2023-04-17T03:55:00.498Z,31.20
2023-04-17T03:56:31.773Z,31.47
2023-04-17T03:58:03.188Z,33.08
2023-04-17T03:59:34.445Z,33.09
2023-04-17T04:01:05.825Z,32.24
2023-04-17T04:02:37.643Z,32.42
2023-04-17T04:04:09.337Z,30.92
2023-04-17T04:05:40.694Z,29.98
2023-04-17T04:07:12.268Z,31.31
2023-04-17T04:08:43.656Z,32.86
2023-04-17T04:10:15.309Z,32.77
2023-04-17T04:11:46.633Z,33.34
2023-04-17T04:13:18.090Z,32.78
2023-04-17T04:14:49.479Z,31.77
2023-04-17T04:16:21.039Z,31.88
2023-04-17T04:17:52.570Z,32.04
2023-04-17T04:19:24.129Z,31.39
2023-04-17T04:20:55.434Z,32.90
2023-04-17T04:22:26.788Z,30.47
2023-04-17T04:23:58.186Z,30.54
2023-04-17T04:25:29.376Z,30.84
2023-04-17T04:27:00.959Z,31.59
2023-04-17T04:28:32.438Z,31.48
2023-04-17T04:30:03.756Z,32.73
2023-04-17T04:31:35.190Z,31.76
2023-04-17T04:33:06.585Z,30.82
2023-04-17T04:34:37.933Z,31.18
2023-04-17T04:36:09.502Z,30.57
2023-04-17T04:37:40.757Z,30.95
2023-04-17T04:39:12.400Z,29.34
2023-04-17T04:40:44.075Z,31.49
2023-04-17T04:42:15.440Z,30.92
2023-04-17T04:43:46.791Z,30.80
2023-04-17T04:45:18.150Z,31.94
2023-04-17T04:46:49.499Z,30.34
2023-04-17T04:48:20.918Z,29.29
2023-04-17T04:49:52.577Z,31.69
2023-04-17T04:51:24.311Z,30.02
2023-04-17T04:52:55.868Z,30.89
2023-04-17T04:54:27.377Z,31.81
2023-04-17T04:55:58.744Z,32.06
2023-04-17T04:57:30.375Z,32.16
2023-04-17T04:59:01.770Z,32.80
2023-04-17T05:00:33.192Z,28.63
2023-04-17T05:02:04.560Z,28.61
2023-04-17T05:03:35.977Z,30.36
2023-04-17T05:05:07.538Z,28.56
2023-04-17T05:06:39.366Z,29.01
2023-04-17T05:08:41.405Z,30.14
2023-04-17T05:10:14.772Z,32.44
2023-04-17T05:11:46.258Z,30.78
2023-04-17T05:13:17.525Z,28.32
2023-04-17T05:14:49.057Z,31.37
2023-04-17T05:16:20.508Z,30.38
2023-04-17T05:17:53.338Z,25.17
2023-04-17T05:19:24.634Z,27.37
2023-04-17T05:20:55.943Z,28.52
2023-04-17T05:22:27.269Z,27.67
2023-04-17T05:23:58.677Z,31.52
2023-04-17T05:25:30.096Z,30.13
2023-04-17T05:27:01.377Z,30.07
2023-04-17T05:28:32.779Z,29.61
2023-04-17T05:30:04.346Z,27.85
2023-04-17T05:31:36.545Z,28.24
2023-04-17T05:33:08.094Z,31.03
2023-04-17T05:34:39.381Z,28.47
2023-04-17T05:36:10.674Z,32.80
2023-04-17T05:37:41.964Z,32.37
2023-04-17T05:39:13.552Z,29.78
2023-04-17T05:40:45.179Z,24.83
2023-04-17T05:42:16.501Z,30.85
2023-04-17T05:43:47.926Z,29.08
2023-04-17T05:45:19.373Z,26.95
2023-04-17T05:46:50.808Z,31.90
2023-04-17T05:48:22.378Z,31.22
2023-04-17T05:49:53.646Z,30.06
2023-04-17T05:51:24.972Z,29.87
2023-04-17T05:52:56.269Z,27.39
2023-04-17T05:54:32.531Z,28.07
2023-04-17T05:56:03.796Z,27.01
2023-04-17T05:57:35.163Z,28.88
2023-04-17T05:59:06.507Z,28.72
2023-04-17T06:00:37.798Z,28.10
2023-04-17T06:02:09.074Z,28.27
2023-04-17T06:03:40.859Z,25.84
2023-04-17T06:05:12.503Z,21.02
2023-04-17T06:06:43.967Z,29.72
2023-04-17T06:08:15.446Z,29.57
2023-04-17T06:09:47.024Z,28.08
2023-04-17T06:11:18.353Z,27.62
2023-04-17T06:12:49.901Z,27.32
2023-04-17T06:14:21.399Z,26.14
2023-04-17T06:15:52.696Z,27.93
2023-04-17T06:17:24.007Z,27.88
2023-04-17T06:18:55.432Z,27.57
2023-04-17T06:20:26.741Z,29.92
2023-04-17T06:21:58.052Z,28.98
2023-04-17T06:23:29.644Z,28.92
2023-04-17T06:25:00.996Z,27.37
2023-04-17T06:26:32.317Z,26.58
2023-04-17T06:28:03.631Z,26.10
2023-04-17T06:29:34.952Z,26.19
2023-04-17T06:31:06.279Z,27.53
2023-04-17T06:32:37.723Z,25.93
2023-04-17T06:34:09.086Z,26.48
2023-04-17T06:35:40.526Z,27.63
2023-04-17T06:37:11.800Z,22.31
2023-04-17T06:38:48.119Z,23.71
2023-04-17T06:40:19.840Z,25.21
2023-04-17T06:41:51.127Z,24.81
2023-04-17T06:43:22.450Z,25.15
2023-04-17T06:44:53.830Z,25.46
2023-04-17T06:46:25.178Z,27.09
2023-04-17T06:47:56.928Z,25.80
2023-04-17T06:49:28.330Z,24.31
2023-04-17T06:50:59.744Z,27.02
2023-04-17T06:52:31.108Z,27.15
2023-04-17T06:54:02.435Z,25.47
2023-04-17T06:55:34.016Z,27.15
2023-04-17T06:57:06.320Z,25.10
2023-04-17T06:58:37.677Z,24.67
2023-04-17T07:00:08.944Z,24.37
2023-04-17T07:01:40.461Z,22.90
2023-04-17T07:03:12.150Z,23.13
2023-04-17T07:04:43.653Z,26.03
2023-04-17T07:06:15.225Z,25.98
2023-04-17T07:07:46.475Z,24.43
2023-04-17T07:09:17.949Z,27.29
2023-04-17T07:10:49.252Z,27.78
2023-04-17T07:12:20.640Z,27.96
2023-04-17T07:13:52.238Z,25.63
2023-04-17T07:15:23.606Z,27.01
2023-04-17T07:16:54.992Z,26.24
2023-04-17T07:18:26.404Z,27.38
2023-04-17T07:19:58.869Z,28.16
2023-04-17T07:21:30.268Z,28.61
2023-04-17T07:23:01.562Z,28.60
2023-04-17T07:24:32.887Z,27.63
2023-04-17T07:26:04.574Z,27.23
2023-04-17T07:27:35.894Z,25.12
2023-04-17T07:29:07.165Z,27.05
2023-04-17T07:30:38.549Z,27.75
2023-04-17T07:32:09.847Z,27.27
2023-04-17T07:33:41.147Z,24.70
2023-04-17T07:35:12.452Z,27.15
2023-04-17T07:36:44.060Z,27.58
2023-04-17T07:38:15.369Z,26.04
2023-04-17T07:39:46.827Z,26.47
2023-04-17T07:41:18.255Z,26.68
2023-04-17T07:42:49.699Z,26.60
2023-04-17T07:44:21.175Z,25.74
2023-04-17T07:45:52.936Z,27.62
2023-04-17T07:47:24.525Z,28.60
2023-04-17T07:48:56.217Z,27.47
2023-04-17T07:50:27.498Z,27.66
2023-04-17T07:51:58.921Z,26.91
2023-04-17T07:53:30.860Z,26.36
2023-04-17T07:55:02.313Z,28.53
2023-04-17T07:56:33.573Z,28.77
2023-04-17T07:58:04.814Z,28.18
2023-04-17T07:59:36.385Z,28.25
2023-04-17T08:01:08.441Z,25.57
2023-04-17T08:02:40.046Z,25.99
2023-04-17T08:04:11.743Z,27.10
2023-04-17T08:05:43.436Z,26.84
2023-04-17T08:07:15.335Z,27.65
2023-04-17T08:08:47.049Z,28.40
2023-04-17T08:10:18.400Z,27.42
2023-04-17T08:11:57.038Z,27.52
2023-04-17T08:13:29.234Z,27.22
2023-04-17T08:15:00.594Z,27.56
2023-04-17T08:16:32.081Z,27.36
2023-04-17T08:18:03.625Z,26.65
2023-04-17T08:19:35.061Z,26.93
2023-04-17T08:21:06.419Z,25.41
2023-04-17T08:22:39.152Z,25.49
2023-04-17T08:24:10.616Z,26.41
2023-04-17T08:25:41.910Z,27.44
2023-04-17T08:27:13.374Z,25.66
2023-04-17T08:28:44.640Z,24.83
2023-04-17T08:30:18.876Z,23.91
2023-04-17T08:31:57.489Z,22.88
2023-04-17T08:33:38.251Z,22.38
2023-04-17T08:35:09.901Z,21.38
2023-04-17T08:36:41.281Z,23.88
2023-04-17T08:38:12.603Z,24.17
2023-04-17T08:39:44.156Z,22.99
2023-04-17T08:41:15.708Z,23.24
2023-04-17T08:42:47.867Z,22.29
2023-04-17T08:44:19.459Z,20.80
2023-04-17T08:45:50.857Z,21.80
2023-04-17T08:47:22.252Z,21.40
2023-04-17T08:48:53.905Z,20.34
2023-04-17T08:50:25.201Z,22.30
2023-04-17T08:51:56.572Z,22.77
2023-04-17T08:53:28.160Z,20.15
2023-04-17T08:55:51.266Z,19.72
2023-04-17T08:58:01.406Z,19.77
2023-04-17T08:59:32.915Z,17.65
2023-04-17T09:01:35.062Z,16.86
2023-04-17T09:03:07.154Z,16.08
2023-04-17T09:04:38.802Z,15.62
2023-04-17T09:06:23.399Z,14.43
2023-04-17T09:07:55.041Z,14.38
2023-04-17T09:09:27.614Z,15.60
2023-04-17T09:10:59.131Z,14.26
2023-04-17T09:12:30.661Z,15.19
2023-04-17T09:14:02.026Z,14.81
2023-04-17T09:15:33.681Z,16.39
2023-04-17T09:17:05.394Z,16.72
2023-04-17T09:18:36.794Z,16.25
2023-04-17T09:20:08.109Z,17.16
2023-04-17T09:21:39.428Z,13.61
2023-04-17T09:23:10.798Z,15.66
2023-04-17T09:24:42.354Z,16.69
2023-04-17T09:26:13.899Z,17.27
2023-04-17T09:27:45.412Z,17.00
2023-04-17T09:29:17.137Z,17.11
2023-04-17T09:30:48.547Z,16.38
2023-04-17T09:32:19.876Z,16.17
2023-04-17T09:33:51.224Z,16.28
2023-04-17T09:35:22.584Z,14.28
2023-04-17T09:36:53.955Z,14.83
2023-04-17T09:38:25.230Z,15.24
2023-04-17T09:39:56.774Z,14.55
2023-04-17T09:41:28.416Z,13.06
2023-04-17T09:42:59.854Z,14.22
2023-04-17T09:44:31.192Z,15.25
2023-04-17T09:46:02.509Z,14.47
2023-04-17T09:47:33.895Z,14.51
2023-04-17T09:49:05.297Z,15.10
2023-04-17T09:50:38.096Z,14.14
2023-04-17T09:52:10.607Z,14.14
2023-04-17T09:53:42.213Z,13.62
2023-04-17T09:55:13.631Z,12.92
2023-04-17T09:56:44.962Z,13.45
2023-04-17T09:58:16.345Z,12.00
2023-04-17T09:59:47.843Z,11.90
2023-04-17T10:01:19.291Z,9.78
2023-04-17T10:02:50.981Z,11.46
2023-04-17T10:04:22.488Z,12.46
2023-04-17T10:05:54.174Z,12.71
2023-04-17T10:07:25.462Z,12.47
2023-04-17T10:08:56.959Z,11.72
2023-04-17T10:10:28.363Z,11.15
2023-04-17T10:11:59.873Z,11.70
2023-04-17T10:13:31.328Z,11.36
2023-04-17T10:15:02.709Z,10.72
2023-04-17T10:16:34.361Z,11.29
2023-04-17T10:18:06.073Z,10.52
2023-04-17T10:19:38.853Z,10.68
2023-04-17T10:21:10.400Z,10.57
2023-04-17T10:22:41.942Z,10.15
2023-04-17T10:24:23.477Z,10.20
2023-04-17T10:25:54.893Z,9.25
2023-04-17T10:27:26.360Z,5.94
2023-04-17T10:28:57.961Z,6.89
2023-04-17T10:30:29.446Z,9.35
2023-04-17T10:32:00.862Z,9.22
2023-04-17T10:33:32.283Z,9.30
2023-04-17T10:35:03.726Z,9.32
2023-04-17T10:36:35.273Z,9.87
2023-04-17T10:38:06.730Z,9.88
2023-04-17T10:39:38.061Z,10.05
2023-04-17T10:41:09.698Z,9.77
2023-04-17T10:42:42.474Z,9.77
2023-04-17T10:44:13.981Z,9.71
2023-04-17T10:45:45.417Z,9.20
2023-04-17T10:47:16.935Z,9.36
2023-04-17T10:48:48.349Z,9.09
2023-04-17T10:50:19.943Z,7.73
2023-04-17T10:51:51.294Z,6.69
2023-04-17T10:53:22.895Z,8.05
2023-04-17T10:54:54.239Z,9.16
2023-04-17T10:56:25.673Z,8.56
2023-04-17T10:57:56.985Z,8.25
2023-04-17T10:59:33.719Z,8.16
2023-04-17T11:01:05.456Z,8.89
2023-04-17T11:02:36.996Z,9.08
2023-04-17T11:04:08.296Z,8.67
2023-04-17T11:05:39.859Z,8.73
2023-04-17T11:07:11.228Z,8.12
2023-04-17T11:08:42.534Z,8.08
2023-04-17T11:10:14.055Z,7.83
2023-04-17T11:11:45.467Z,7.67
2023-04-17T11:13:17.217Z,7.53
2023-04-17T11:14:49.071Z,8.13
2023-04-17T11:16:20.437Z,7.78
2023-04-17T11:17:52.010Z,7.89
2023-04-17T11:19:28.484Z,8.05
2023-04-17T11:21:00.036Z,7.97
2023-04-17T11:22:31.594Z,7.59
2023-04-17T11:24:03.001Z,8.00
2023-04-17T11:25:35.163Z,7.13
2023-04-17T11:27:06.527Z,7.44
2023-04-17T11:28:37.968Z,7.64
2023-04-17T11:30:09.391Z,7.98
2023-04-17T11:31:40.917Z,8.18
2023-04-17T11:33:12.596Z,8.07
2023-04-17T11:34:44.151Z,8.32
2023-04-17T11:36:15.526Z,7.68
2023-04-17T11:37:47.058Z,8.14
2023-04-17T11:39:18.407Z,8.07
2023-04-17T11:40:50.038Z,8.62
2023-04-17T11:42:21.452Z,8.48
2023-04-17T11:43:52.884Z,7.88
2023-04-17T11:45:24.486Z,7.48
2023-04-17T11:46:56.019Z,7.78
2023-04-17T11:48:27.475Z,8.01
2023-04-17T11:49:59.115Z,8.20
2023-04-17T11:51:30.504Z,7.45
2023-04-17T11:53:01.942Z,7.94
2023-04-17T11:54:33.337Z,8.37
2023-04-17T11:56:04.768Z,8.56
2023-04-17T11:57:36.137Z,8.30
2023-04-17T11:59:07.727Z,8.73
2023-04-17T12:00:39.248Z,7.35
2023-04-17T12:02:10.697Z,7.31
2023-04-17T12:03:45.285Z,7.83
2023-04-17T12:05:17.466Z,8.24
2023-04-17T12:06:49.118Z,8.30
2023-04-17T12:08:20.654Z,8.18
2023-04-17T12:09:52.325Z,8.06
2023-04-17T12:11:23.721Z,8.40
2023-04-17T12:12:55.426Z,7.79
2023-04-17T12:14:26.967Z,7.86
2023-04-17T12:15:58.511Z,7.48
2023-04-17T12:17:30.146Z,9.22
2023-04-17T12:19:01.782Z,9.08
2023-04-17T12:20:33.150Z,7.60
2023-04-17T12:22:04.695Z,8.27
2023-04-17T12:23:36.177Z,8.83
2023-04-17T12:25:07.545Z,8.25
2023-04-17T12:26:39.049Z,8.93
2023-04-17T12:28:10.473Z,8.54
2023-04-17T12:29:44.549Z,8.49
2023-04-17T12:31:18.775Z,8.11
2023-04-17T12:32:50.236Z,8.61
2023-04-17T12:34:21.770Z,8.27
2023-04-17T12:35:53.213Z,8.06
2023-04-17T12:37:24.786Z,7.76
2023-04-17T12:38:56.346Z,9.24
2023-04-17T12:40:27.720Z,8.63
2023-04-17T12:41:59.119Z,8.72
2023-04-17T12:43:30.616Z,9.09
2023-04-17T12:45:02.031Z,7.37
2023-04-17T12:46:33.634Z,7.65
2023-04-17T12:48:05.106Z,6.96
2023-04-17T12:49:41.623Z,7.50
2023-04-17T12:51:13.007Z,7.13
2023-04-17T12:52:45.690Z,7.26
2023-04-17T12:54:17.512Z,6.90
2023-04-17T12:55:48.926Z,7.35
2023-04-17T12:57:20.716Z,7.66
2023-04-17T12:58:52.250Z,7.93
2023-04-17T13:00:23.966Z,7.72
2023-04-17T13:01:55.493Z,7.99
2023-04-17T13:03:28.136Z,8.04
2023-04-17T13:04:59.841Z,7.29
2023-04-17T13:06:31.252Z,7.47
2023-04-17T13:08:02.682Z,7.95
2023-04-17T13:09:34.484Z,7.99
2023-04-17T13:11:05.936Z,8.76
2023-04-17T13:12:37.631Z,8.41
2023-04-17T13:14:08.991Z,8.33
2023-04-17T13:15:40.680Z,7.60
2023-04-17T13:17:17.716Z,7.80
2023-04-17T13:18:49.429Z,8.17
2023-04-17T13:20:20.908Z,8.67
2023-04-17T13:21:52.354Z,8.56
2023-04-17T13:23:23.718Z,8.28
2023-04-17T13:24:55.106Z,8.23
2023-04-17T13:26:27.597Z,7.64
2023-04-17T13:27:59.325Z,7.93
2023-04-17T13:29:30.736Z,7.94
2023-04-17T13:31:02.474Z,7.45
2023-04-17T13:32:34.057Z,7.83
2023-04-17T13:34:05.476Z,7.76
2023-04-17T13:35:36.871Z,7.96
2023-04-17T13:37:13.529Z,8.14
2023-04-17T13:38:44.980Z,7.87
2023-04-17T13:40:17.455Z,8.28
2023-04-17T13:41:49.472Z,7.84
2023-04-17T13:43:21.014Z,7.97
2023-04-17T13:44:52.449Z,7.81
2023-04-17T13:46:24.138Z,7.88
2023-04-17T13:47:55.892Z,7.04
2023-04-17T13:49:27.329Z,7.85
2023-04-17T13:50:58.809Z,7.21
2023-04-17T13:52:30.691Z,7.79
2023-04-17T13:54:02.132Z,8.68
2023-04-17T13:55:33.691Z,8.59
2023-04-17T13:57:05.090Z,7.17
2023-04-17T13:58:36.544Z,7.07
2023-04-17T14:00:08.085Z,7.83
2023-04-17T14:01:39.707Z,8.82
2023-04-17T14:03:11.233Z,8.55
2023-04-17T14:04:42.832Z,8.57
2023-04-17T14:06:14.399Z,7.28
2023-04-17T14:07:45.890Z,7.83
2023-04-17T14:09:17.376Z,7.61
2023-04-17T14:10:48.724Z,7.48
2023-04-17T14:12:20.077Z,8.35
2023-04-17T14:13:56.672Z,8.23
2023-04-17T14:15:28.419Z,8.06
2023-04-17T14:16:59.806Z,8.18
2023-04-17T14:18:31.161Z,7.74
2023-04-17T14:20:02.801Z,7.76
2023-04-17T14:21:34.385Z,8.57
2023-04-17T14:25:03.736Z,8.18
2023-04-17T14:26:35.401Z,8.12
2023-04-17T14:28:06.762Z,8.33
2023-04-17T14:30:01.105Z,8.56
2023-04-17T14:31:32.922Z,7.64
2023-04-17T14:33:04.385Z,7.25
2023-04-17T14:34:36.031Z,7.14
2023-04-17T14:36:07.489Z,8.03
2023-04-17T14:37:40.255Z,7.97
2023-04-17T14:39:35.834Z,7.52
2023-04-17T14:41:07.518Z,7.90
2023-04-17T14:42:51.292Z,7.89
2023-04-17T14:44:25.787Z,7.94
2023-04-17T14:45:58.031Z,8.12
2023-04-17T14:47:30.118Z,7.53
2023-04-17T14:49:01.670Z,7.57
2023-04-17T14:50:33.160Z,7.76
2023-04-17T14:52:04.491Z,7.74
2023-04-17T14:53:35.949Z,8.01
2023-04-17T14:55:07.481Z,7.96
2023-04-17T14:56:38.971Z,7.73
2023-04-17T14:58:10.707Z,7.40
2023-04-17T14:59:42.317Z,7.82
2023-04-17T15:01:13.705Z,7.53
2023-04-17T15:02:45.269Z,7.64
2023-04-17T15:04:21.982Z,7.54
2023-04-17T15:05:53.609Z,7.44
2023-04-17T15:07:25.085Z,7.25
2023-04-17T15:08:56.603Z,6.37
2023-04-17T15:10:32.367Z,6.60
2023-04-17T15:12:08.883Z,6.64
2023-04-17T15:13:40.336Z,7.38
2023-04-17T15:15:12.966Z,7.53
2023-04-17T15:16:44.453Z,7.89
2023-04-17T15:18:16.894Z,8.04
2023-04-17T15:19:48.523Z,7.98
2023-04-17T15:21:20.061Z,7.42
2023-04-17T15:22:52.695Z,6.83
2023-04-17T15:24:24.660Z,6.80
2023-04-17T15:25:56.342Z,6.69
2023-04-17T15:27:27.807Z,7.08
2023-04-17T15:28:59.291Z,6.87
2023-04-17T15:30:31.207Z,6.50
2023-04-17T15:32:02.790Z,6.70
2023-04-17T15:33:34.207Z,5.93
2023-04-17T15:35:05.689Z,6.77
2023-04-17T15:36:37.188Z,6.83
2023-04-17T15:38:08.570Z,6.57
2023-04-17T15:39:40.168Z,6.68
2023-04-17T15:41:11.595Z,7.07
2023-04-17T15:42:42.990Z,7.07
2023-04-17T15:44:14.733Z,6.72
2023-04-17T15:45:46.134Z,7.39
2023-04-17T15:47:17.787Z,6.71
2023-04-17T15:49:04.614Z,6.61
2023-04-17T15:50:39.449Z,7.14
2023-04-17T15:52:10.877Z,6.41
2023-04-17T15:53:42.283Z,4.69
2023-04-17T15:55:13.633Z,5.70
2023-04-17T15:56:45.110Z,5.43
2023-04-17T15:58:16.564Z,4.32
2023-04-17T15:59:48.026Z,4.54
2023-04-17T16:01:19.505Z,6.23
2023-04-17T16:02:51.021Z,6.39
2023-04-17T16:04:24.304Z,6.65
2023-04-17T16:05:55.863Z,6.69
2023-04-17T16:07:27.595Z,6.71
2023-04-17T16:08:59.180Z,6.87
2023-04-17T16:10:30.791Z,6.98
2023-04-17T16:12:02.231Z,6.86
2023-04-17T16:13:35.402Z,6.64
2023-04-17T16:15:06.817Z,6.80
2023-04-17T16:16:38.583Z,6.82
2023-04-17T16:18:10.010Z,6.77
2023-04-17T16:19:42.782Z,6.31
2023-04-17T16:21:14.254Z,5.25
2023-04-17T16:22:46.045Z,6.61
2023-04-17T16:24:17.613Z,6.98
2023-04-17T16:25:49.005Z,6.52
2023-04-17T16:27:20.413Z,6.50
2023-04-17T16:28:52.009Z,6.48
2023-04-17T16:30:23.410Z,6.71
2023-04-17T16:31:55.433Z,6.95
2023-04-17T16:33:27.021Z,6.70
2023-04-17T16:34:59.085Z,6.25
2023-04-17T16:36:32.818Z,6.65
2023-04-17T16:38:04.892Z,6.80
2023-04-17T16:39:36.411Z,6.53
2023-04-17T16:41:08.330Z,6.47
2023-04-17T16:42:39.767Z,6.17
2023-04-17T16:44:11.513Z,6.11
2023-04-17T16:45:43.156Z,6.30
2023-04-17T16:47:15.027Z,6.44
2023-04-17T16:48:47.058Z,5.97
2023-04-17T16:50:18.989Z,6.74
2023-04-17T16:51:50.359Z,6.98
2023-04-17T16:53:21.835Z,7.21
2023-04-17T16:54:53.335Z,7.07
2023-04-17T16:56:24.758Z,6.60
2023-04-17T16:57:56.112Z,7.47
2023-04-17T16:59:27.475Z,7.01
2023-04-17T17:00:58.912Z,5.82
2023-04-17T17:02:30.349Z,5.86
2023-04-17T17:04:02.012Z,6.73
2023-04-17T17:05:33.640Z,7.06
2023-04-17T17:07:05.513Z,7.11
2023-04-17T17:08:36.895Z,7.45
2023-04-17T17:10:08.367Z,7.33
2023-04-17T17:11:44.924Z,7.32
2023-04-17T17:13:16.545Z,7.53
2023-04-17T17:14:48.010Z,7.72
2023-04-17T17:16:19.438Z,7.87
2023-04-17T17:17:51.508Z,8.01
2023-04-17T17:19:22.925Z,8.26
2023-04-17T17:20:54.602Z,8.18
2023-04-17T17:22:31.056Z,7.72
2023-04-17T17:24:02.433Z,8.38
2023-04-17T17:25:34.223Z,8.07
2023-04-17T17:27:07.369Z,8.42
2023-04-17T17:28:41.901Z,8.53
2023-04-17T17:30:13.413Z,8.34
2023-04-17T17:31:45.144Z,8.07
2023-04-17T17:33:16.609Z,8.17
2023-04-17T17:34:47.945Z,8.69
2023-04-17T17:36:19.282Z,8.85
2023-04-17T17:37:55.722Z,9.09
2023-04-17T17:39:27.173Z,8.95
2023-04-17T17:40:58.615Z,8.92
2023-04-17T17:42:30.285Z,8.79
2023-04-17T17:44:01.753Z,7.25
2023-04-17T17:45:33.273Z,7.80
2023-04-17T17:47:07.533Z,7.97
2023-04-17T17:48:39.410Z,8.66
2023-04-17T17:50:10.695Z,7.99
2023-04-17T17:51:42.066Z,7.90
2023-04-17T17:53:13.621Z,7.60
2023-04-17T17:54:45.390Z,7.51
2023-04-17T17:56:16.793Z,8.13
2023-04-17T17:57:49.588Z,7.79
2023-04-17T17:59:21.359Z,8.08
2023-04-17T18:01:02.844Z,8.36
2023-04-17T18:02:34.525Z,8.23
2023-04-17T18:04:06.235Z,8.20
2023-04-17T18:05:38.045Z,7.98
2023-04-17T18:07:09.412Z,8.03
2023-04-17T18:08:40.732Z,7.87
2023-04-17T18:10:12.001Z,8.43
2023-04-17T18:11:43.359Z,8.21
2023-04-17T18:13:14.906Z,8.01
2023-04-17T18:14:46.396Z,8.27
2023-04-17T18:16:17.817Z,8.35
2023-04-17T18:17:49.399Z,7.87
2023-04-17T18:19:20.875Z,8.13
2023-04-17T18:20:52.250Z,8.01
2023-04-17T18:22:23.866Z,7.99
2023-04-17T18:23:55.427Z,7.74
2023-04-17T18:25:26.831Z,7.74
2023-04-17T18:26:58.120Z,7.72
2023-04-17T18:28:30.232Z,7.95
2023-04-17T18:30:01.682Z,8.06
2023-04-17T18:31:33.738Z,7.89
2023-04-17T18:33:05.716Z,8.18
2023-04-17T18:34:37.075Z,8.14
2023-04-17T18:36:08.418Z,8.30
2023-04-17T18:37:40.465Z,8.76
2023-04-17T18:39:21.915Z,8.48
2023-04-17T18:40:56.182Z,8.13
2023-04-17T18:42:28.692Z,8.84
2023-04-17T18:44:00.284Z,8.44
2023-04-17T18:45:32.918Z,7.95
2023-04-17T18:47:04.312Z,8.14
2023-04-17T18:48:36.073Z,7.94
2023-04-17T18:50:07.746Z,8.14
2023-04-17T18:51:39.235Z,8.15
2023-04-17T18:53:10.651Z,7.48
2023-04-17T18:54:47.094Z,8.01
2023-04-17T18:56:18.451Z,8.10
2023-04-17T18:57:50.177Z,8.07
2023-04-17T18:59:21.463Z,8.24
2023-04-17T19:00:52.766Z,8.08
2023-04-17T19:02:24.393Z,8.11
2023-04-17T19:03:55.798Z,8.22
2023-04-17T19:05:27.262Z,8.40
2023-04-17T19:06:58.647Z,7.99
2023-04-17T19:08:30.039Z,8.49
2023-04-17T19:10:01.367Z,8.51
2023-04-17T19:11:32.682Z,8.52
2023-04-17T19:13:04.173Z,8.29
2023-04-17T19:14:35.951Z,8.58
2023-04-17T19:16:07.405Z,8.42
2023-04-17T19:17:38.967Z,8.45
2023-04-17T19:19:11.373Z,8.54
2023-04-17T19:20:43.041Z,8.51
2023-04-17T19:22:16.011Z,8.49
2023-04-17T19:23:48.103Z,8.46
2023-04-17T19:25:19.640Z,8.34
2023-04-17T19:26:50.948Z,8.64
2023-04-17T19:28:22.293Z,8.90
2023-04-17T19:29:53.585Z,8.74
2023-04-17T19:31:25.108Z,8.63
2023-04-17T19:32:56.575Z,8.41
2023-04-17T19:34:27.994Z,8.20
2023-04-17T19:35:59.381Z,8.50
2023-04-17T19:37:30.802Z,8.00
2023-04-17T19:39:03.398Z,8.30
2023-04-17T19:40:34.943Z,8.63
2023-04-17T19:42:06.286Z,8.02
2023-04-17T19:43:37.642Z,7.91
2023-04-17T19:45:09.082Z,8.07
2023-04-17T19:46:40.959Z,8.37
2023-04-17T19:48:12.219Z,8.34
2023-04-17T19:49:43.909Z,8.78
2023-04-17T19:51:15.991Z,8.69
2023-04-17T19:52:48.180Z,8.78
2023-04-17T19:54:19.935Z,8.44
2023-04-17T19:55:53.065Z,8.31
2023-04-17T19:57:24.773Z,8.43
2023-04-17T19:58:57.492Z,8.81
2023-04-17T20:00:29.429Z,9.19
2023-04-17T20:02:01.041Z,8.22
2023-04-17T20:03:32.956Z,8.97
2023-04-17T20:05:04.816Z,9.31
2023-04-17T20:06:36.455Z,8.73